sensor_id;sensor_type;location;lat;lon;timestamp;temperature;humidity
69543;SHT31;56762;49.494;11.768;2023-05-24T00:01:48;12.21;76.13
69543;SHT31;56762;49.494;11.768;2023-05-24T00:04:16;12.23;74.37
69543;SHT31;56762;49.494;11.768;2023-05-24T00:06:44;12.27;74.45
69543;SHT31;56762;49.494;11.768;2023-05-24T00:09:13;12.26;73.79
69543;SHT31;56762;49.494;11.768;2023-05-24T00:11:41;12.30;72.15
69543;SHT31;56762;49.494;11.768;2023-05-24T00:14:11;12.21;72.85
69543;SHT31;56762;49.494;11.768;2023-05-24T00:16:38;12.18;74.11
69543;SHT31;56762;49.494;11.768;2023-05-24T00:19:07;12.21;73.51
69543;SHT31;56762;49.494;11.768;2023-05-24T00:21:37;12.17;73.42
69543;SHT31;56762;49.494;11.768;2023-05-24T00:24:05;12.20;74.14
69543;SHT31;56762;49.494;11.768;2023-05-24T00:26:33;12.20;73.35
69543;SHT31;56762;49.494;11.768;2023-05-24T00:29:01;12.17;73.26
69543;SHT31;56762;49.494;11.768;2023-05-24T00:31:31;12.17;74.41
69543;SHT31;56762;49.494;11.768;2023-05-24T00:33:59;12.18;72.62
69543;SHT31;56762;49.494;11.768;2023-05-24T00:36:28;12.17;73.12
69543;SHT31;56762;49.494;11.768;2023-05-24T00:38:56;12.13;71.76
69543;SHT31;56762;49.494;11.768;2023-05-24T00:41:24;12.09;72.40
69543;SHT31;56762;49.494;11.768;2023-05-24T00:43:53;12.07;71.81
69543;SHT31;56762;49.494;11.768;2023-05-24T00:46:25;12.06;72.57
69543;SHT31;56762;49.494;11.768;2023-05-24T00:48:56;12.06;73.37
69543;SHT31;56762;49.494;11.768;2023-05-24T00:51:25;12.07;72.88
69543;SHT31;56762;49.494;11.768;2023-05-24T00:53:54;12.09;72.93
69543;SHT31;56762;49.494;11.768;2023-05-24T00:56:22;12.10;73.77
69543;SHT31;56762;49.494;11.768;2023-05-24T00:58:50;12.13;75.00
69543;SHT31;56762;49.494;11.768;2023-05-24T01:01:21;12.12;74.37
69543;SHT31;56762;49.494;11.768;2023-05-24T01:03:51;12.13;73.24
69543;SHT31;56762;49.494;11.768;2023-05-24T01:06:21;12.13;73.27
69543;SHT31;56762;49.494;11.768;2023-05-24T01:09:01;12.13;72.58
69543;SHT31;56762;49.494;11.768;2023-05-24T01:11:39;12.12;72.82
69543;SHT31;56762;49.494;11.768;2023-05-24T01:14:15;12.12;72.97
69543;SHT31;56762;49.494;11.768;2023-05-24T01:16:50;12.12;72.80
69543;SHT31;56762;49.494;11.768;2023-05-24T01:22:25;12.12;72.49
69543;SHT31;56762;49.494;11.768;2023-05-24T01:25:02;12.13;71.22
69543;SHT31;56762;49.494;11.768;2023-05-24T01:27:33;12.07;71.92
69543;SHT31;56762;49.494;11.768;2023-05-24T01:30:03;12.04;71.79
69543;SHT31;56762;49.494;11.768;2023-05-24T01:32:32;12.07;71.25
69543;SHT31;56762;49.494;11.768;2023-05-24T01:35:01;12.01;72.44
69543;SHT31;56762;49.494;11.768;2023-05-24T01:37:29;12.01;71.50
69543;SHT31;56762;49.494;11.768;2023-05-24T01:39:57;11.93;70.62
69543;SHT31;56762;49.494;11.768;2023-05-24T01:42:27;11.89;71.56
69543;SHT31;56762;49.494;11.768;2023-05-24T01:45:05;11.94;72.24
69543;SHT31;56762;49.494;11.768;2023-05-24T01:47:43;11.89;71.52
69543;SHT31;56762;49.494;11.768;2023-05-24T01:50:17;11.87;72.01
69543;SHT31;56762;49.494;11.768;2023-05-24T01:52:48;11.87;71.46
69543;SHT31;56762;49.494;11.768;2023-05-24T01:55:17;11.85;71.27
69543;SHT31;56762;49.494;11.768;2023-05-24T01:57:47;11.87;70.87
69543;SHT31;56762;49.494;11.768;2023-05-24T02:00:20;11.85;70.81
69543;SHT31;56762;49.494;11.768;2023-05-24T02:02:48;11.85;70.12
69543;SHT31;56762;49.494;11.768;2023-05-24T02:05:16;11.73;70.13
69543;SHT31;56762;49.494;11.768;2023-05-24T02:07:46;11.79;70.14
69543;SHT31;56762;49.494;11.768;2023-05-24T02:10:14;11.77;70.02
69543;SHT31;56762;49.494;11.768;2023-05-24T02:12:43;11.77;69.14
69543;SHT31;56762;49.494;11.768;2023-05-24T02:15:11;11.70;69.48
69543;SHT31;56762;49.494;11.768;2023-05-24T02:17:41;11.63;69.48
69543;SHT31;56762;49.494;11.768;2023-05-24T02:20:11;11.62;70.33
69543;SHT31;56762;49.494;11.768;2023-05-24T02:22:40;11.66;70.53
69543;SHT31;56762;49.494;11.768;2023-05-24T02:25:08;11.65;71.02
69543;SHT31;56762;49.494;11.768;2023-05-24T02:27:37;11.63;70.40
69543;SHT31;56762;49.494;11.768;2023-05-24T02:30:06;11.66;69.83
69543;SHT31;56762;49.494;11.768;2023-05-24T02:32:34;11.62;70.28
69543;SHT31;56762;49.494;11.768;2023-05-24T02:35:04;11.61;70.22
69543;SHT31;56762;49.494;11.768;2023-05-24T02:37:34;11.61;70.62
69543;SHT31;56762;49.494;11.768;2023-05-24T02:40:03;11.56;70.17
69543;SHT31;56762;49.494;11.768;2023-05-24T02:42:31;11.58;70.30
69543;SHT31;56762;49.494;11.768;2023-05-24T02:45:00;11.56;69.86
69543;SHT31;56762;49.494;11.768;2023-05-24T02:47:28;11.55;70.58
69543;SHT31;56762;49.494;11.768;2023-05-24T02:49:56;11.48;70.20
69543;SHT31;56762;49.494;11.768;2023-05-24T02:52:25;11.45;70.10
69543;SHT31;56762;49.494;11.768;2023-05-24T02:54:53;11.43;70.56
69543;SHT31;56762;49.494;11.768;2023-05-24T02:57:21;11.46;71.18
69543;SHT31;56762;49.494;11.768;2023-05-24T02:59:49;11.54;70.89
69543;SHT31;56762;49.494;11.768;2023-05-24T03:02:18;11.51;70.50
69543;SHT31;56762;49.494;11.768;2023-05-24T03:04:48;11.51;71.32
69543;SHT31;56762;49.494;11.768;2023-05-24T03:07:16;11.51;71.07
69543;SHT31;56762;49.494;11.768;2023-05-24T03:09:46;11.52;71.18
69543;SHT31;56762;49.494;11.768;2023-05-24T03:12:13;11.54;70.69
69543;SHT31;56762;49.494;11.768;2023-05-24T03:14:41;11.49;71.08
69543;SHT31;56762;49.494;11.768;2023-05-24T03:17:10;11.49;70.64
69543;SHT31;56762;49.494;11.768;2023-05-24T03:19:38;11.48;70.41
69543;SHT31;56762;49.494;11.768;2023-05-24T03:22:06;11.48;70.69
69543;SHT31;56762;49.494;11.768;2023-05-24T03:24:34;11.43;70.67
69543;SHT31;56762;49.494;11.768;2023-05-24T03:27:06;11.42;71.06
69543;SHT31;56762;49.494;11.768;2023-05-24T03:29:34;11.42;71.58
69543;SHT31;56762;49.494;11.768;2023-05-24T03:32:03;11.42;71.30
69543;SHT31;56762;49.494;11.768;2023-05-24T03:34:31;11.43;70.18
69543;SHT31;56762;49.494;11.768;2023-05-24T03:36:59;11.39;70.81
69543;SHT31;56762;49.494;11.768;2023-05-24T03:39:35;11.39;70.31
69543;SHT31;56762;49.494;11.768;2023-05-24T03:42:05;11.39;71.66
69543;SHT31;56762;49.494;11.768;2023-05-24T03:44:33;11.42;71.74
69543;SHT31;56762;49.494;11.768;2023-05-24T03:47:01;11.40;71.74
69543;SHT31;56762;49.494;11.768;2023-05-24T03:49:30;11.35;70.84
69543;SHT31;56762;49.494;11.768;2023-05-24T03:51:59;11.38;71.11
69543;SHT31;56762;49.494;11.768;2023-05-24T03:54:27;11.35;71.17
69543;SHT31;56762;49.494;11.768;2023-05-24T03:56:55;11.39;70.62
69543;SHT31;56762;49.494;11.768;2023-05-24T03:59:24;11.36;71.64
69543;SHT31;56762;49.494;11.768;2023-05-24T04:01:53;11.25;70.63
69543;SHT31;56762;49.494;11.768;2023-05-24T04:04:21;11.22;70.50
69543;SHT31;56762;49.494;11.768;2023-05-24T04:06:49;11.21;70.96
69543;SHT31;56762;49.494;11.768;2023-05-24T04:09:17;11.21;71.37
69543;SHT31;56762;49.494;11.768;2023-05-24T04:11:48;11.19;71.30
69543;SHT31;56762;49.494;11.768;2023-05-24T04:14:16;11.21;71.26
69543;SHT31;56762;49.494;11.768;2023-05-24T04:16:46;11.21;71.12
69543;SHT31;56762;49.494;11.768;2023-05-24T04:19:14;11.17;70.79
69543;SHT31;56762;49.494;11.768;2023-05-24T04:21:43;11.14;71.02
69543;SHT31;56762;49.494;11.768;2023-05-24T04:24:11;11.19;71.65
69543;SHT31;56762;49.494;11.768;2023-05-24T04:26:40;11.19;71.60
69543;SHT31;56762;49.494;11.768;2023-05-24T04:29:11;11.24;70.82
69543;SHT31;56762;49.494;11.768;2023-05-24T04:31:39;11.19;71.08
69543;SHT31;56762;49.494;11.768;2023-05-24T04:34:10;11.17;70.71
69543;SHT31;56762;49.494;11.768;2023-05-24T04:36:38;11.12;70.27
69543;SHT31;56762;49.494;11.768;2023-05-24T04:39:06;11.15;70.86
69543;SHT31;56762;49.494;11.768;2023-05-24T04:41:34;11.12;73.16
69543;SHT31;56762;49.494;11.768;2023-05-24T04:44:03;11.12;72.27
69543;SHT31;56762;49.494;11.768;2023-05-24T04:46:31;11.15;73.58
69543;SHT31;56762;49.494;11.768;2023-05-24T04:49:01;11.15;71.98
69543;SHT31;56762;49.494;11.768;2023-05-24T04:51:33;11.21;70.50
69543;SHT31;56762;49.494;11.768;2023-05-24T04:54:04;11.21;70.36
69543;SHT31;56762;49.494;11.768;2023-05-24T04:56:34;11.21;71.11
69543;SHT31;56762;49.494;11.768;2023-05-24T04:59:04;11.18;72.63
69543;SHT31;56762;49.494;11.768;2023-05-24T05:01:32;11.18;71.79
69543;SHT31;56762;49.494;11.768;2023-05-24T05:04:01;11.14;70.84
69543;SHT31;56762;49.494;11.768;2023-05-24T05:06:32;11.10;71.77
69543;SHT31;56762;49.494;11.768;2023-05-24T05:11:35;11.12;72.04
69543;SHT31;56762;49.494;11.768;2023-05-24T05:14:05;11.17;72.12
69543;SHT31;56762;49.494;11.768;2023-05-24T05:16:35;11.12;71.56
69543;SHT31;56762;49.494;11.768;2023-05-24T05:19:04;11.18;72.03
69543;SHT31;56762;49.494;11.768;2023-05-24T05:21:34;11.21;70.96
69543;SHT31;56762;49.494;11.768;2023-05-24T05:24:04;11.17;70.64
69543;SHT31;56762;49.494;11.768;2023-05-24T05:26:32;11.17;72.28
69543;SHT31;56762;49.494;11.768;2023-05-24T05:29:01;11.18;71.28
69543;SHT31;56762;49.494;11.768;2023-05-24T05:31:29;11.10;70.95
69543;SHT31;56762;49.494;11.768;2023-05-24T05:33:58;11.03;71.13
69543;SHT31;56762;49.494;11.768;2023-05-24T05:36:27;11.04;72.10
69543;SHT31;56762;49.494;11.768;2023-05-24T05:38:56;11.11;71.12
69543;SHT31;56762;49.494;11.768;2023-05-24T05:41:25;11.14;71.30
69543;SHT31;56762;49.494;11.768;2023-05-24T05:43:53;11.11;70.37
69543;SHT31;56762;49.494;11.768;2023-05-24T05:46:21;11.07;71.32
69543;SHT31;56762;49.494;11.768;2023-05-24T05:48:49;11.10;71.62
69543;SHT31;56762;49.494;11.768;2023-05-24T05:51:19;11.07;71.35
69543;SHT31;56762;49.494;11.768;2023-05-24T05:53:47;11.04;71.75
69543;SHT31;56762;49.494;11.768;2023-05-24T05:56:16;11.08;72.94
69543;SHT31;56762;49.494;11.768;2023-05-24T05:58:44;11.11;72.60
69543;SHT31;56762;49.494;11.768;2023-05-24T06:01:14;11.15;71.62
69543;SHT31;56762;49.494;11.768;2023-05-24T06:03:42;11.14;71.35
69543;SHT31;56762;49.494;11.768;2023-05-24T06:06:11;11.10;71.60
69543;SHT31;56762;49.494;11.768;2023-05-24T06:08:39;11.04;71.90
69543;SHT31;56762;49.494;11.768;2023-05-24T06:11:08;11.04;71.72
69543;SHT31;56762;49.494;11.768;2023-05-24T06:13:37;11.10;72.41
69543;SHT31;56762;49.494;11.768;2023-05-24T06:16:06;11.06;71.95
69543;SHT31;56762;49.494;11.768;2023-05-24T06:18:35;11.17;71.91
69543;SHT31;56762;49.494;11.768;2023-05-24T06:21:03;11.11;72.00
69543;SHT31;56762;49.494;11.768;2023-05-24T06:23:32;11.07;72.18
69543;SHT31;56762;49.494;11.768;2023-05-24T06:26:02;11.10;72.27
69543;SHT31;56762;49.494;11.768;2023-05-24T06:28:30;11.01;68.76
69543;SHT31;56762;49.494;11.768;2023-05-24T06:30:59;10.94;69.21
69543;SHT31;56762;49.494;11.768;2023-05-24T06:33:28;10.87;69.41
69543;SHT31;56762;49.494;11.768;2023-05-24T06:36:01;10.85;69.44
69543;SHT31;56762;49.494;11.768;2023-05-24T06:38:30;10.87;69.62
69543;SHT31;56762;49.494;11.768;2023-05-24T06:40:58;10.90;69.03
69543;SHT31;56762;49.494;11.768;2023-05-24T06:43:28;10.78;68.24
69543;SHT31;56762;49.494;11.768;2023-05-24T06:45:58;10.83;68.50
69543;SHT31;56762;49.494;11.768;2023-05-24T06:48:26;10.88;68.19
69543;SHT31;56762;49.494;11.768;2023-05-24T06:50:54;10.88;67.35
69543;SHT31;56762;49.494;11.768;2023-05-24T06:53:23;10.90;68.20
69543;SHT31;56762;49.494;11.768;2023-05-24T06:55:51;10.93;68.33
69543;SHT31;56762;49.494;11.768;2023-05-24T06:58:22;10.85;67.65
69543;SHT31;56762;49.494;11.768;2023-05-24T07:00:51;10.90;67.89
69543;SHT31;56762;49.494;11.768;2023-05-24T07:03:21;11.03;67.58
69543;SHT31;56762;49.494;11.768;2023-05-24T07:05:49;10.96;68.31
69543;SHT31;56762;49.494;11.768;2023-05-24T07:08:18;10.96;68.53
69543;SHT31;56762;49.494;11.768;2023-05-24T07:10:48;11.00;68.53
69543;SHT31;56762;49.494;11.768;2023-05-24T07:13:16;10.87;67.70
69543;SHT31;56762;49.494;11.768;2023-05-24T07:15:45;11.01;68.49
69543;SHT31;56762;49.494;11.768;2023-05-24T07:18:14;10.96;68.02
69543;SHT31;56762;49.494;11.768;2023-05-24T07:20:43;11.07;67.40
69543;SHT31;56762;49.494;11.768;2023-05-24T07:23:11;10.90;67.35
69543;SHT31;56762;49.494;11.768;2023-05-24T07:25:39;10.93;68.26
69543;SHT31;56762;49.494;11.768;2023-05-24T07:28:07;11.04;68.37
69543;SHT31;56762;49.494;11.768;2023-05-24T07:30:35;11.07;68.19
69543;SHT31;56762;49.494;11.768;2023-05-24T07:33:03;10.90;68.12
69543;SHT31;56762;49.494;11.768;2023-05-24T07:35:35;10.98;67.56
69543;SHT31;56762;49.494;11.768;2023-05-24T07:38:05;11.00;67.18
69543;SHT31;56762;49.494;11.768;2023-05-24T07:40:34;10.97;67.12
69543;SHT31;56762;49.494;11.768;2023-05-24T07:43:02;10.94;66.95
69543;SHT31;56762;49.494;11.768;2023-05-24T07:45:30;11.03;67.42
69543;SHT31;56762;49.494;11.768;2023-05-24T07:47:59;11.06;66.56
69543;SHT31;56762;49.494;11.768;2023-05-24T07:50:27;11.11;67.35
69543;SHT31;56762;49.494;11.768;2023-05-24T07:52:56;11.17;67.32
69543;SHT31;56762;49.494;11.768;2023-05-24T07:55:25;11.18;66.34
69543;SHT31;56762;49.494;11.768;2023-05-24T07:57:54;11.21;66.28
69543;SHT31;56762;49.494;11.768;2023-05-24T08:00:22;11.21;66.15
69543;SHT31;56762;49.494;11.768;2023-05-24T08:02:50;11.18;65.89
69543;SHT31;56762;49.494;11.768;2023-05-24T08:05:19;11.27;66.31
69543;SHT31;56762;49.494;11.768;2023-05-24T08:07:47;11.31;66.65
69543;SHT31;56762;49.494;11.768;2023-05-24T08:10:15;11.42;66.63
69543;SHT31;56762;49.494;11.768;2023-05-24T08:12:46;11.48;65.66
69543;SHT31;56762;49.494;11.768;2023-05-24T08:15:15;11.52;66.57
69543;SHT31;56762;49.494;11.768;2023-05-24T08:17:43;11.61;67.93
69543;SHT31;56762;49.494;11.768;2023-05-24T08:20:12;11.70;68.05
69543;SHT31;56762;49.494;11.768;2023-05-24T08:22:42;11.72;65.95
69543;SHT31;56762;49.494;11.768;2023-05-24T08:25:10;11.59;64.55
69543;SHT31;56762;49.494;11.768;2023-05-24T08:27:38;11.69;65.57
69543;SHT31;56762;49.494;11.768;2023-05-24T08:30:08;11.70;64.31
69543;SHT31;56762;49.494;11.768;2023-05-24T08:32:38;11.69;65.01
69543;SHT31;56762;49.494;11.768;2023-05-24T08:35:07;11.72;65.39
69543;SHT31;56762;49.494;11.768;2023-05-24T08:37:46;11.70;65.66
69543;SHT31;56762;49.494;11.768;2023-05-24T08:40:15;11.79;66.57
69543;SHT31;56762;49.494;11.768;2023-05-24T08:42:45;11.80;65.54
69543;SHT31;56762;49.494;11.768;2023-05-24T08:45:14;11.76;64.88
69543;SHT31;56762;49.494;11.768;2023-05-24T08:47:42;11.79;65.48
69543;SHT31;56762;49.494;11.768;2023-05-24T08:50:11;11.82;65.36
69543;SHT31;56762;49.494;11.768;2023-05-24T08:52:41;11.77;65.04
69543;SHT31;56762;49.494;11.768;2023-05-24T08:55:10;11.76;64.18
69543;SHT31;56762;49.494;11.768;2023-05-24T08:57:38;11.70;64.23
69543;SHT31;56762;49.494;11.768;2023-05-24T09:00:09;11.82;64.72
69543;SHT31;56762;49.494;11.768;2023-05-24T09:02:42;11.89;65.49
69543;SHT31;56762;49.494;11.768;2023-05-24T09:05:11;11.93;65.87
69543;SHT31;56762;49.494;11.768;2023-05-24T09:07:41;11.75;63.49
69543;SHT31;56762;49.494;11.768;2023-05-24T09:10:10;11.76;65.12
69543;SHT31;56762;49.494;11.768;2023-05-24T09:12:42;11.89;66.58
69543;SHT31;56762;49.494;11.768;2023-05-24T09:15:11;12.00;66.27
69543;SHT31;56762;49.494;11.768;2023-05-24T09:17:42;11.99;63.67
69543;SHT31;56762;49.494;11.768;2023-05-24T09:20:11;12.01;63.20
69543;SHT31;56762;49.494;11.768;2023-05-24T09:22:41;12.01;62.57
69543;SHT31;56762;49.494;11.768;2023-05-24T09:25:12;12.09;65.37
69543;SHT31;56762;49.494;11.768;2023-05-24T09:27:49;12.16;64.98
69543;SHT31;56762;49.494;11.768;2023-05-24T09:30:18;12.27;64.66
69543;SHT31;56762;49.494;11.768;2023-05-24T09:32:55;12.31;63.52
69543;SHT31;56762;49.494;11.768;2023-05-24T09:35:24;12.34;64.90
69543;SHT31;56762;49.494;11.768;2023-05-24T09:37:54;12.34;63.07
69543;SHT31;56762;49.494;11.768;2023-05-24T09:40:23;12.45;62.12
69543;SHT31;56762;49.494;11.768;2023-05-24T09:43:02;12.49;62.53
69543;SHT31;56762;49.494;11.768;2023-05-24T09:45:29;12.51;63.08
69543;SHT31;56762;49.494;11.768;2023-05-24T09:48:02;12.52;62.84
69543;SHT31;56762;49.494;11.768;2023-05-24T09:50:30;12.61;61.82
69543;SHT31;56762;49.494;11.768;2023-05-24T09:52:58;12.64;61.58
69543;SHT31;56762;49.494;11.768;2023-05-24T09:55:26;12.61;62.44
69543;SHT31;56762;49.494;11.768;2023-05-24T09:58:01;12.64;62.80
69543;SHT31;56762;49.494;11.768;2023-05-24T10:00:32;12.69;62.16
69543;SHT31;56762;49.494;11.768;2023-05-24T10:03:05;12.72;65.55
69543;SHT31;56762;49.494;11.768;2023-05-24T10:05:34;12.77;63.76
69543;SHT31;56762;49.494;11.768;2023-05-24T10:08:02;12.93;62.24
69543;SHT31;56762;49.494;11.768;2023-05-24T10:10:32;12.99;61.41
69543;SHT31;56762;49.494;11.768;2023-05-24T10:13:01;12.85;59.97
69543;SHT31;56762;49.494;11.768;2023-05-24T10:15:30;12.78;62.05
69543;SHT31;56762;49.494;11.768;2023-05-24T10:17:58;12.85;61.52
69543;SHT31;56762;49.494;11.768;2023-05-24T10:20:30;12.85;60.25
69543;SHT31;56762;49.494;11.768;2023-05-24T10:23:00;12.84;61.41
69543;SHT31;56762;49.494;11.768;2023-05-24T10:25:28;12.91;60.21
69543;SHT31;56762;49.494;11.768;2023-05-24T10:28:03;12.89;60.11
69543;SHT31;56762;49.494;11.768;2023-05-24T10:30:35;13.03;61.54
69543;SHT31;56762;49.494;11.768;2023-05-24T10:33:06;13.03;59.38
69543;SHT31;56762;49.494;11.768;2023-05-24T10:35:38;12.81;58.42
69543;SHT31;56762;49.494;11.768;2023-05-24T10:38:06;12.85;59.40
69543;SHT31;56762;49.494;11.768;2023-05-24T10:40:34;12.85;59.53
69543;SHT31;56762;49.494;11.768;2023-05-24T10:43:07;12.95;60.22
69543;SHT31;56762;49.494;11.768;2023-05-24T10:45:37;13.00;59.77
69543;SHT31;56762;49.494;11.768;2023-05-24T10:48:34;12.99;59.06
69543;SHT31;56762;49.494;11.768;2023-05-24T10:51:44;12.95;61.25
69543;SHT31;56762;49.494;11.768;2023-05-24T10:54:17;12.99;57.90
69543;SHT31;56762;49.494;11.768;2023-05-24T10:56:46;12.98;57.73
69543;SHT31;56762;49.494;11.768;2023-05-24T10:59:27;12.88;56.72
69543;SHT31;56762;49.494;11.768;2023-05-24T11:01:57;12.93;58.60
69543;SHT31;56762;49.494;11.768;2023-05-24T11:04:30;12.88;58.37
69543;SHT31;56762;49.494;11.768;2023-05-24T11:07:05;12.98;59.37
69543;SHT31;56762;49.494;11.768;2023-05-24T11:09:35;12.99;58.86
69543;SHT31;56762;49.494;11.768;2023-05-24T11:12:06;13.00;57.16
69543;SHT31;56762;49.494;11.768;2023-05-24T11:14:36;12.98;57.23
69543;SHT31;56762;49.494;11.768;2023-05-24T11:17:06;12.95;57.55
69543;SHT31;56762;49.494;11.768;2023-05-24T11:19:36;12.93;58.91
69543;SHT31;56762;49.494;11.768;2023-05-24T11:22:07;12.93;59.70
69543;SHT31;56762;49.494;11.768;2023-05-24T11:24:35;12.96;61.00
69543;SHT31;56762;49.494;11.768;2023-05-24T11:27:04;13.05;61.90
69543;SHT31;56762;49.494;11.768;2023-05-24T11:29:39;12.98;58.00
69543;SHT31;56762;49.494;11.768;2023-05-24T11:32:08;12.95;58.10
69543;SHT31;56762;49.494;11.768;2023-05-24T11:34:37;12.79;58.59
69543;SHT31;56762;49.494;11.768;2023-05-24T11:37:07;12.75;58.99
69543;SHT31;56762;49.494;11.768;2023-05-24T11:39:36;12.75;59.90
69543;SHT31;56762;49.494;11.768;2023-05-24T11:42:06;12.81;60.18
69543;SHT31;56762;49.494;11.768;2023-05-24T11:44:35;12.69;60.31
69543;SHT31;56762;49.494;11.768;2023-05-24T11:47:06;12.78;62.17
69543;SHT31;56762;49.494;11.768;2023-05-24T11:49:34;12.87;61.03
69543;SHT31;56762;49.494;11.768;2023-05-24T11:52:04;12.89;60.36
69543;SHT31;56762;49.494;11.768;2023-05-24T11:54:34;12.87;60.99
69543;SHT31;56762;49.494;11.768;2023-05-24T11:57:04;12.93;60.12
69543;SHT31;56762;49.494;11.768;2023-05-24T11:59:32;12.99;60.24
69543;SHT31;56762;49.494;11.768;2023-05-24T12:02:04;12.96;58.14
69543;SHT31;56762;49.494;11.768;2023-05-24T12:04:33;12.93;58.81
69543;SHT31;56762;49.494;11.768;2023-05-24T12:07:03;13.00;59.26
69543;SHT31;56762;49.494;11.768;2023-05-24T12:09:31;13.06;58.67
69543;SHT31;56762;49.494;11.768;2023-05-24T12:12:01;13.00;57.89
69543;SHT31;56762;49.494;11.768;2023-05-24T12:14:31;13.02;58.77
69543;SHT31;56762;49.494;11.768;2023-05-24T12:17:00;13.03;57.77
69543;SHT31;56762;49.494;11.768;2023-05-24T12:19:33;13.02;57.43
69543;SHT31;56762;49.494;11.768;2023-05-24T12:22:03;13.03;58.76
69543;SHT31;56762;49.494;11.768;2023-05-24T12:24:31;13.09;57.21
69543;SHT31;56762;49.494;11.768;2023-05-24T12:27:02;13.08;57.17
69543;SHT31;56762;49.494;11.768;2023-05-24T12:29:34;13.06;55.82
69543;SHT31;56762;49.494;11.768;2023-05-24T12:32:03;13.03;57.07
69543;SHT31;56762;49.494;11.768;2023-05-24T12:34:31;13.13;57.09
69543;SHT31;56762;49.494;11.768;2023-05-24T12:37:01;13.06;57.50
69543;SHT31;56762;49.494;11.768;2023-05-24T12:39:29;13.02;57.19
69543;SHT31;56762;49.494;11.768;2023-05-24T12:42:03;13.10;58.20
69543;SHT31;56762;49.494;11.768;2023-05-24T12:44:33;13.22;57.69
69543;SHT31;56762;49.494;11.768;2023-05-24T12:47:02;13.24;58.39
69543;SHT31;56762;49.494;11.768;2023-05-24T12:49:32;13.15;56.39
69543;SHT31;56762;49.494;11.768;2023-05-24T12:52:00;13.08;57.68
69543;SHT31;56762;49.494;11.768;2023-05-24T12:54:28;13.10;58.45
69543;SHT31;56762;49.494;11.768;2023-05-24T12:56:57;13.06;58.19
69543;SHT31;56762;49.494;11.768;2023-05-24T12:59:29;13.15;59.05
69543;SHT31;56762;49.494;11.768;2023-05-24T13:01:57;13.20;58.51
69543;SHT31;56762;49.494;11.768;2023-05-24T13:04:26;13.23;58.65
69543;SHT31;56762;49.494;11.768;2023-05-24T13:06:57;13.36;58.75
69543;SHT31;56762;49.494;11.768;2023-05-24T13:09:26;13.35;58.80
69543;SHT31;56762;49.494;11.768;2023-05-24T13:11:54;13.39;58.42
69543;SHT31;56762;49.494;11.768;2023-05-24T13:14:23;13.42;57.72
69543;SHT31;56762;49.494;11.768;2023-05-24T13:16:54;13.09;55.66
69543;SHT31;56762;49.494;11.768;2023-05-24T13:19:22;13.19;56.84
69543;SHT31;56762;49.494;11.768;2023-05-24T13:21:51;13.19;57.76
69543;SHT31;56762;49.494;11.768;2023-05-24T13:24:20;13.19;57.29
69543;SHT31;56762;49.494;11.768;2023-05-24T13:26:48;13.30;57.30
69543;SHT31;56762;49.494;11.768;2023-05-24T13:29:20;13.29;56.71
69543;SHT31;56762;49.494;11.768;2023-05-24T13:31:53;13.33;53.01
69543;SHT31;56762;49.494;11.768;2023-05-24T13:34:24;13.24;49.92
69543;SHT31;56762;49.494;11.768;2023-05-24T13:36:53;13.20;49.56
69543;SHT31;56762;49.494;11.768;2023-05-24T13:39:21;13.15;50.57
69543;SHT31;56762;49.494;11.768;2023-05-24T13:41:50;12.93;49.64
69543;SHT31;56762;49.494;11.768;2023-05-24T13:44:18;13.05;49.84
69543;SHT31;56762;49.494;11.768;2023-05-24T13:46:46;13.02;51.34
69543;SHT31;56762;49.494;11.768;2023-05-24T13:49:16;13.08;52.04
69543;SHT31;56762;49.494;11.768;2023-05-24T13:51:44;13.16;49.99
69543;SHT31;56762;49.494;11.768;2023-05-24T13:54:14;13.15;51.25
69543;SHT31;56762;49.494;11.768;2023-05-24T13:56:43;13.05;51.14
69543;SHT31;56762;49.494;11.768;2023-05-24T13:59:15;13.06;50.23
69543;SHT31;56762;49.494;11.768;2023-05-24T14:01:43;13.19;49.75
69543;SHT31;56762;49.494;11.768;2023-05-24T14:04:12;13.15;51.22
69543;SHT31;56762;49.494;11.768;2023-05-24T14:06:42;13.18;51.09
69543;SHT31;56762;49.494;11.768;2023-05-24T14:09:13;13.26;49.76
69543;SHT31;56762;49.494;11.768;2023-05-24T14:11:41;13.26;48.94
69543;SHT31;56762;49.494;11.768;2023-05-24T14:14:15;13.37;49.31
69543;SHT31;56762;49.494;11.768;2023-05-24T14:16:46;13.39;50.60
69543;SHT31;56762;49.494;11.768;2023-05-24T14:19:17;13.44;50.34
69543;SHT31;56762;49.494;11.768;2023-05-24T14:21:46;13.44;50.05
69543;SHT31;56762;49.494;11.768;2023-05-24T14:24:14;13.42;49.35
69543;SHT31;56762;49.494;11.768;2023-05-24T14:26:43;13.49;50.22
69543;SHT31;56762;49.494;11.768;2023-05-24T14:29:13;13.44;49.14
69543;SHT31;56762;49.494;11.768;2023-05-24T14:31:41;13.36;50.11
69543;SHT31;56762;49.494;11.768;2023-05-24T14:34:10;13.40;48.62
69543;SHT31;56762;49.494;11.768;2023-05-24T14:36:39;13.43;49.41
69543;SHT31;56762;49.494;11.768;2023-05-24T14:39:12;13.47;50.71
69543;SHT31;56762;49.494;11.768;2023-05-24T14:41:40;13.47;49.19
69543;SHT31;56762;49.494;11.768;2023-05-24T14:44:09;13.53;50.80
69543;SHT31;56762;49.494;11.768;2023-05-24T14:46:39;13.49;49.95
69543;SHT31;56762;49.494;11.768;2023-05-24T14:49:07;13.56;52.46
69543;SHT31;56762;49.494;11.768;2023-05-24T14:51:36;13.60;50.20
69543;SHT31;56762;49.494;11.768;2023-05-24T14:54:04;13.61;46.90
69543;SHT31;56762;49.494;11.768;2023-05-24T14:56:36;13.63;47.86
69543;SHT31;56762;49.494;11.768;2023-05-24T14:59:05;13.51;48.19
69543;SHT31;56762;49.494;11.768;2023-05-24T15:01:32;13.61;47.71
69543;SHT31;56762;49.494;11.768;2023-05-24T15:04:03;13.53;49.77
69543;SHT31;56762;49.494;11.768;2023-05-24T15:06:31;13.58;49.67
69543;SHT31;56762;49.494;11.768;2023-05-24T15:09:01;13.58;50.36
69543;SHT31;56762;49.494;11.768;2023-05-24T15:11:29;13.66;48.22
69543;SHT31;56762;49.494;11.768;2023-05-24T15:13:58;13.61;50.23
69543;SHT31;56762;49.494;11.768;2023-05-24T15:16:29;13.61;49.36
69543;SHT31;56762;49.494;11.768;2023-05-24T15:18:59;13.63;48.53
69543;SHT31;56762;49.494;11.768;2023-05-24T15:21:28;13.53;47.30
69543;SHT31;56762;49.494;11.768;2023-05-24T15:23:56;13.58;46.45
69543;SHT31;56762;49.494;11.768;2023-05-24T15:26:25;13.56;46.64
69543;SHT31;56762;49.494;11.768;2023-05-24T15:28:53;13.57;46.72
69543;SHT31;56762;49.494;11.768;2023-05-24T15:31:24;13.58;47.08
69543;SHT31;56762;49.494;11.768;2023-05-24T15:33:52;13.60;46.95
69543;SHT31;56762;49.494;11.768;2023-05-24T15:36:20;13.58;47.40